Time;durP1;ratioP1;P1;durP2;ratioP2;P2;SDS_P1;SDS_P2;PMS_P1;PMS_P2;Temp;Humidity;BMP_temperature;BMP_pressure;BME280_temperature;BME280_humidity;BME280_pressure;Samples;Min_cycle;Max_cycle;Signal;HPM_P1;HPM_P2
2023/05/11 00:00:30;;;;;;;;;;;;;;;21.18;51.84;100908.03;5008923;28;4170;-73
2023/05/11 00:02:56;;;;;;;;;;;;;;;21.18;52.00;100913.06;5011115;28;4189;-73
2023/05/11 00:05:23;;;;;;;;;;;;;;;21.17;52.02;100912.31;5008122;28;4049;-74
2023/05/11 00:07:49;;;;;;;;;;;;;;;21.17;51.84;100911.56;5009046;28;4082;-73
2023/05/11 00:10:15;;;;;;;;;;;;;;;21.16;51.86;100916.56;5007591;28;4406;-73
2023/05/11 00:12:42;;;;;;;;;;;;;;;21.16;51.91;100910.81;5004862;28;4140;-73
2023/05/11 00:15:09;;;;;;;;;;;;;;;21.16;51.99;100916.56;5009273;28;4403;-73
2023/05/11 00:17:35;;;;;;;;;;;;;;;21.16;51.81;100916.56;5008023;28;4148;-73
2023/05/11 00:20:02;;;;;;;;;;;;;;;21.16;51.96;100910.81;5010353;28;4210;-73
2023/05/11 00:22:28;;;;;;;;;;;;;;;21.16;52.13;100904.31;5008499;28;4174;-72
2023/05/11 00:24:55;;;;;;;;;;;;;;;21.15;51.85;100915.09;5007247;28;4000;-73
2023/05/11 00:27:21;;;;;;;;;;;;;;;21.14;51.82;100904.97;5005579;28;4159;-73
2023/05/11 00:29:47;;;;;;;;;;;;;;;21.12;51.84;100899.88;5005836;28;4288;-73
2023/05/11 00:32:14;;;;;;;;;;;;;;;21.13;51.86;100909.25;5009468;28;4001;-73
2023/05/11 00:34:40;;;;;;;;;;;;;;;21.15;51.81;100908.59;5009402;28;4120;-72
2023/05/11 00:37:07;;;;;;;;;;;;;;;21.13;51.84;100907.09;5006314;28;4019;-73
2023/05/11 00:39:39;;;;;;;;;;;;;;;21.14;51.74;100910.72;5007631;28;5162;-72
2023/05/11 00:42:05;;;;;;;;;;;;;;;21.12;51.89;100904.91;5009494;28;4038;-74
2023/05/11 00:44:32;;;;;;;;;;;;;;;21.13;51.74;100907.09;5006450;28;4337;-73
2023/05/11 00:46:58;;;;;;;;;;;;;;;21.12;51.85;100905.63;5011223;28;4460;-74
2023/05/11 00:49:25;;;;;;;;;;;;;;;21.12;51.80;100893.38;5012868;28;4421;-74
2023/05/11 00:51:52;;;;;;;;;;;;;;;21.12;52.00;100904.91;4998192;28;4186;-74
2023/05/11 00:54:18;;;;;;;;;;;;;;;21.12;51.83;100902.03;5013669;28;4120;-74
2023/05/11 00:56:45;;;;;;;;;;;;;;;21.11;51.98;100897.63;5005829;28;5281;-73
2023/05/11 00:59:12;;;;;;;;;;;;;;;21.13;51.93;100900.59;5005602;28;4117;-74
2023/05/11 01:01:39;;;;;;;;;;;;;;;21.11;51.85;100892.63;5006150;28;4182;-74
2023/05/11 01:04:05;;;;;;;;;;;;;;;21.11;52.04;100894.75;5004559;28;4069;-74
2023/05/11 01:06:43;;;;;;;;;;;;;;;21.11;52.07;100894.75;5002978;28;4236;-73
2023/05/11 01:09:17;;;;;;;;;;;;;;;21.11;51.75;100891.88;5005215;28;4291;-74
2023/05/11 01:11:48;;;;;;;;;;;;;;;21.10;51.83;100890.41;5006063;28;4155;-74
2023/05/11 01:14:19;;;;;;;;;;;;;;;21.10;51.91;100899.78;4987677;28;4120;-74
2023/05/11 01:16:47;;;;;;;;;;;;;;;21.09;51.92;100900.44;5013558;28;4149;-63
2023/05/11 01:19:22;;;;;;;;;;;;;;;21.09;52.04;100895.41;5013851;28;4211;-70
2023/05/11 01:21:48;;;;;;;;;;;;;;;21.10;51.71;100896.16;5005048;28;4146;-82
2023/05/11 01:24:14;;;;;;;;;;;;;;;21.08;51.75;100896.06;5004065;28;4045;-81
2023/05/11 01:26:59;;;;;;;;;;;;;;;21.07;51.75;100898.22;5003815;28;4158;-81
2023/05/11 01:29:32;;;;;;;;;;;;;;;21.08;51.76;100893.19;5000426;28;5082;-82
2023/05/11 01:31:59;;;;;;;;;;;;;;;21.08;51.76;100901.84;5009873;28;4047;-81
2023/05/11 01:34:27;;;;;;;;;;;;;;;21.07;51.98;100898.22;5004917;28;4291;-81
2023/05/11 01:36:54;;;;;;;;;;;;;;;21.07;52.02;100903.22;5005336;28;4150;-81
2023/05/11 01:39:23;;;;;;;;;;;;;;;21.07;51.73;100897.47;5003566;28;4157;-82
2023/05/11 01:41:50;;;;;;;;;;;;;;;21.07;51.90;100898.22;5005466;28;4276;-81
2023/05/11 01:44:16;;;;;;;;;;;;;;;21.07;51.93;100900.34;5005351;28;4011;-81
2023/05/11 01:46:43;;;;;;;;;;;;;;;21.07;51.91;100906.09;5002929;28;4086;-81
2023/05/11 01:49:09;;;;;;;;;;;;;;;21.06;51.64;100913.25;5007194;28;4122;-81
2023/05/11 01:51:36;;;;;;;;;;;;;;;21.06;51.84;100907.50;5011231;28;4192;-81
2023/05/11 01:54:05;;;;;;;;;;;;;;;21.06;51.75;100904.63;5009705;28;4129;-80
2023/05/11 01:56:32;;;;;;;;;;;;;;;21.06;51.92;100913.25;5006848;28;4114;-80
2023/05/11 01:58:58;;;;;;;;;;;;;;;21.05;51.64;100917.50;4996295;28;4762;-80
2023/05/11 02:01:25;;;;;;;;;;;;;;;21.05;51.74;100917.50;5011089;28;3940;-79
2023/05/11 02:03:52;;;;;;;;;;;;;;;21.04;51.90;100913.91;5007123;28;3975;-80
2023/05/11 02:06:18;;;;;;;;;;;;;;;21.04;51.80;100921.81;5003146;28;4170;-79
2023/05/11 02:08:45;;;;;;;;;;;;;;;21.04;51.76;100922.53;5000604;28;4532;-80
2023/05/11 02:11:11;;;;;;;;;;;;;;;21.04;51.86;100928.28;5007365;28;5082;-79
2023/05/11 02:13:38;;;;;;;;;;;;;;;21.03;51.66;100921.06;5005419;28;4508;-79
2023/05/11 02:16:04;;;;;;;;;;;;;;;21.03;51.78;100920.31;4994509;28;4243;-79
2023/05/11 02:18:31;;;;;;;;;;;;;;;21.03;51.70;100931.84;5010916;28;4148;-80
2023/05/11 02:20:59;;;;;;;;;;;;;;;21.02;51.84;100930.34;5009797;28;4394;-80
2023/05/11 02:23:26;;;;;;;;;;;;;;;21.01;51.77;100929.59;4995666;28;4569;-79
2023/05/11 02:25:53;;;;;;;;;;;;;;;21.01;51.64;100928.88;5005521;28;4405;-80
2023/05/11 02:28:19;;;;;;;;;;;;;;;21.01;51.57;100923.13;4987646;28;4445;-80
2023/05/11 02:30:47;;;;;;;;;;;;;;;21.01;51.75;100926.72;5005207;28;4195;-80
2023/05/11 02:33:17;;;;;;;;;;;;;;;21.01;51.69;100928.88;5019003;28;4948;-81
2023/05/11 02:35:43;;;;;;;;;;;;;;;21.00;51.76;100927.38;5005886;28;4184;-80
2023/05/11 02:38:10;;;;;;;;;;;;;;;20.99;51.92;100926.63;5010032;28;4083;-80
2023/05/11 02:40:38;;;;;;;;;;;;;;;21.00;51.82;100936.00;4992977;28;4139;-80
2023/05/11 02:43:09;;;;;;;;;;;;;;;20.99;51.86;100925.91;5009211;28;4031;-80
2023/05/11 02:45:41;;;;;;;;;;;;;;;20.99;51.79;100931.66;5002769;28;4066;-80
2023/05/11 02:48:08;;;;;;;;;;;;;;;20.98;51.68;100936.69;5009822;28;4423;-80
2023/05/11 02:50:36;;;;;;;;;;;;;;;20.98;51.84;100924.41;5009039;28;4386;-81
2023/05/11 02:53:05;;;;;;;;;;;;;;;20.97;51.88;100923.66;5004882;28;4136;-80
2023/05/11 02:55:32;;;;;;;;;;;;;;;20.98;51.78;100927.28;5003723;28;4239;-80
2023/05/11 02:57:58;;;;;;;;;;;;;;;20.97;51.75;100935.19;5010653;28;4045;-80
2023/05/11 03:00:25;;;;;;;;;;;;;;;20.98;51.73;100930.16;5014942;28;4105;-81
2023/05/11 03:02:51;;;;;;;;;;;;;;;20.96;51.81;100939.47;4988835;28;4321;-80
2023/05/11 03:05:19;;;;;;;;;;;;;;;20.96;51.84;100939.47;5022869;28;4255;-82
2023/05/11 03:07:46;;;;;;;;;;;;;;;20.96;51.82;100932.94;5012781;28;4090;-81
2023/05/11 03:10:12;;;;;;;;;;;;;;;20.96;51.66;100935.81;5011063;28;4429;-81
2023/05/11 03:12:42;;;;;;;;;;;;;;;20.96;51.79;100935.81;4997577;28;4393;-81
2023/05/11 03:15:10;;;;;;;;;;;;;;;20.95;51.65;100937.97;5019171;28;4057;-79
2023/05/11 03:17:38;;;;;;;;;;;;;;;20.95;51.65;100943.72;5022230;28;4350;-82
2023/05/11 03:20:06;;;;;;;;;;;;;;;20.95;51.60;100937.22;4997603;28;4075;-81
2023/05/11 03:22:33;;;;;;;;;;;;;;;20.92;51.49;100934.25;5003187;28;4302;-81
2023/05/11 03:24:59;;;;;;;;;;;;;;;20.93;51.78;100935.72;5012630;28;4124;-80
2023/05/11 03:27:26;;;;;;;;;;;;;;;20.95;51.54;100940.09;4990256;28;4087;-81
2023/05/11 03:29:52;;;;;;;;;;;;;;;20.93;51.64;100935.72;4998098;28;4246;-71
2023/05/11 03:32:18;;;;;;;;;;;;;;;20.93;51.72;100937.88;5011646;28;4347;-76
2023/05/11 03:34:45;;;;;;;;;;;;;;;20.83;51.60;100935.28;5012861;28;4151;-76
2023/05/11 03:37:14;;;;;;;;;;;;;;;20.80;51.60;100927.94;5017331;28;4285;-76
2023/05/11 03:39:41;;;;;;;;;;;;;;;20.77;51.63;100929.22;5009604;28;4019;-75
2023/05/11 03:42:08;;;;;;;;;;;;;;;20.76;51.40;100939.28;5007553;28;4293;-75
2023/05/11 03:44:35;;;;;;;;;;;;;;;20.76;51.18;100944.28;4993663;28;4113;-75
2023/05/11 03:47:02;;;;;;;;;;;;;;;20.75;51.18;100934.91;5011568;28;4691;-75
2023/05/11 03:49:29;;;;;;;;;;;;;;;20.75;51.20;100937.78;4996036;28;4480;-75
2023/05/11 03:51:55;;;;;;;;;;;;;;;20.73;51.04;100934.81;5005470;28;4172;-75
2023/05/11 03:54:25;;;;;;;;;;;;;;;20.72;50.95;100941.97;5016444;28;4195;-75
2023/05/11 03:56:51;;;;;;;;;;;;;;;20.74;50.91;100927.66;5000769;28;4103;-76
2023/05/11 03:59:18;;;;;;;;;;;;;;;20.72;50.78;100927.56;5011757;28;4379;-76
2023/05/11 04:01:44;;;;;;;;;;;;;;;20.71;50.93;100931.84;5010059;28;4496;-76
2023/05/11 04:04:10;;;;;;;;;;;;;;;20.71;51.00;100937.59;5007245;28;4143;-75
2023/05/11 04:06:37;;;;;;;;;;;;;;;20.70;50.68;100933.97;5007892;28;4101;-75
2023/05/11 04:09:09;;;;;;;;;;;;;;;20.70;50.67;100938.97;5016614;28;4131;-76
2023/05/11 04:11:35;;;;;;;;;;;;;;;20.71;50.56;100941.22;5013436;28;4253;-75
2023/05/11 04:14:02;;;;;;;;;;;;;;;20.70;50.61;100941.88;5015608;28;4047;-78
2023/05/11 04:16:28;;;;;;;;;;;;;;;20.70;50.75;100933.97;5007373;28;4207;-77
2023/05/11 04:18:55;;;;;;;;;;;;;;;20.70;50.74;100942.59;5007728;28;4468;-78
2023/05/11 04:21:21;;;;;;;;;;;;;;;20.70;50.64;100930.34;5010325;28;4366;-76
2023/05/11 04:23:47;;;;;;;;;;;;;;;20.70;50.93;100936.84;5008496;28;4119;-76
2023/05/11 04:26:14;;;;;;;;;;;;;;;20.70;50.71;100942.59;5010351;28;4091;-76
2023/05/11 04:28:42;;;;;;;;;;;;;;;20.71;50.70;100938.34;5005524;28;4192;-76
2023/05/11 04:31:09;;;;;;;;;;;;;;;20.72;50.49;100947.72;5006766;28;4074;-76
2023/05/11 04:33:36;;;;;;;;;;;;;;;20.71;50.61;100949.13;5024826;28;4195;-76
2023/05/11 04:36:02;;;;;;;;;;;;;;;20.71;50.71;100941.22;5017978;28;4125;-76
2023/05/11 04:38:29;;;;;;;;;;;;;;;20.70;50.66;100942.59;5006904;28;4214;-76
2023/05/11 04:40:56;;;;;;;;;;;;;;;20.71;50.62;100946.25;5013781;28;4144;-75
2023/05/11 04:43:22;;;;;;;;;;;;;;;20.69;50.58;100949.75;5015738;28;4280;-76
2023/05/11 04:45:49;;;;;;;;;;;;;;;20.69;50.50;100951.91;5023181;28;4050;-76
2023/05/11 04:48:20;;;;;;;;;;;;;;;20.68;50.41;100953.28;5008477;28;4279;-76
2023/05/11 04:50:47;;;;;;;;;;;;;;;20.68;50.31;100959.78;5014413;28;4153;-76
2023/05/11 04:53:15;;;;;;;;;;;;;;;20.69;50.43;100951.91;5016182;28;4212;-75
2023/05/11 04:55:42;;;;;;;;;;;;;;;20.70;50.40;100962.00;5006509;28;4220;-76
2023/05/11 04:58:09;;;;;;;;;;;;;;;20.70;50.24;100959.13;5010603;28;4389;-76
2023/05/11 05:00:35;;;;;;;;;;;;;;;20.70;50.40;100974.25;5007611;28;4147;-75
2023/05/11 05:03:02;;;;;;;;;;;;;;;20.72;50.25;100973.63;5020997;28;4134;-76
2023/05/11 05:05:28;;;;;;;;;;;;;;;20.72;50.22;100964.97;5005107;28;4182;-74
2023/05/11 05:07:55;;;;;;;;;;;;;;;20.75;50.17;100971.56;5011082;28;4129;-75
2023/05/11 05:10:21;;;;;;;;;;;;;;;20.75;50.08;100968.69;5007327;28;4063;-76
2023/05/11 05:12:47;;;;;;;;;;;;;;;20.77;49.68;100971.66;5022667;28;4485;-77
2023/05/11 05:15:14;;;;;;;;;;;;;;;20.90;49.24;100974.47;5011182;28;4078;-77
2023/05/11 05:17:40;;;;;;;;;;;;;;;20.79;49.36;100969.63;5005755;28;4120;-76
2023/05/11 05:20:07;;;;;;;;;;;;;;;20.76;49.60;100968.06;5008611;28;3965;-76
2023/05/11 05:22:33;;;;;;;;;;;;;;;20.74;49.33;100976.59;5003934;28;4198;-76
2023/05/11 05:25:01;;;;;;;;;;;;;;;20.74;49.54;100973.72;5013706;28;4234;-76
2023/05/11 05:27:27;;;;;;;;;;;;;;;20.73;49.52;100975.13;5014349;28;4121;-76
2023/05/11 05:29:55;;;;;;;;;;;;;;;20.74;49.63;100976.59;4999749;28;4197;-76
2023/05/11 05:32:23;;;;;;;;;;;;;;;20.74;49.37;100976.59;5013174;28;4082;-76
2023/05/11 05:34:50;;;;;;;;;;;;;;;20.75;49.46;100972.31;5007640;28;4176;-76
2023/05/11 05:37:16;;;;;;;;;;;;;;;20.74;49.01;100970.84;5004397;28;4317;-76
2023/05/11 05:39:43;;;;;;;;;;;;;;;20.70;49.42;100985.03;5018569;28;4213;-73
2023/05/11 05:42:13;;;;;;;;;;;;;;;20.77;49.08;100981.03;5014386;28;4130;-72
2023/05/11 05:44:40;;;;;;;;;;;;;;;20.75;48.88;100983.81;5002724;28;4045;-72
2023/05/11 05:47:06;;;;;;;;;;;;;;;20.40;48.24;100978.53;5011499;28;4241;-72
2023/05/11 05:49:35;;;;;;;;;;;;;;;20.08;47.98;100990.69;5012120;28;4326;-71
2023/05/11 05:52:02;;;;;;;;;;;;;;;20.11;47.66;100993.66;5013089;28;4093;-73
2023/05/11 05:54:29;;;;;;;;;;;;;;;20.20;47.42;100993.44;5016008;28;4020;-73
2023/05/11 05:56:56;;;;;;;;;;;;;;;20.40;47.11;100987.16;5016564;28;4011;-72
2023/05/11 05:59:23;;;;;;;;;;;;;;;20.46;47.13;100996.09;5005458;28;4430;-72
2023/05/11 06:01:53;;;;;;;;;;;;;;;20.49;47.08;100997.69;5017653;28;4155;-72
2023/05/11 06:04:21;;;;;;;;;;;;;;;20.60;47.50;100996.06;4992910;28;4007;-77
2023/05/11 06:06:48;;;;;;;;;;;;;;;21.01;48.37;100998.69;5010188;28;4007;-76
2023/05/11 06:09:14;;;;;;;;;;;;;;;21.18;47.67;100990.81;5017112;28;4114;-79
2023/05/11 06:11:40;;;;;;;;;;;;;;;21.19;46.84;100995.91;5018487;28;4128;-77
2023/05/11 06:14:07;;;;;;;;;;;;;;;21.19;47.09;101000.91;5019387;28;4900;-82
2023/05/11 06:16:34;;;;;;;;;;;;;;;21.28;47.62;101003.53;5015803;28;4037;-78
2023/05/11 06:19:00;;;;;;;;;;;;;;;21.39;47.14;100995.31;5014114;28;4286;-76
2023/05/11 06:21:27;;;;;;;;;;;;;;;21.50;46.99;101006.66;5010499;28;4289;-72
2023/05/11 06:23:54;;;;;;;;;;;;;;;21.71;46.76;101001.78;5014395;28;4333;-76
2023/05/11 06:26:23;;;;;;;;;;;;;;;21.72;46.26;101004.03;5005819;28;4096;-71
2023/05/11 06:28:51;;;;;;;;;;;;;;;21.66;46.79;101003.75;5002651;28;4135;-71
2023/05/11 06:31:18;;;;;;;;;;;;;;;21.70;46.34;100998.16;5018968;28;4395;-76
2023/05/11 06:33:45;;;;;;;;;;;;;;;21.57;46.56;101004.78;5014754;28;4122;-72
2023/05/11 06:36:19;;;;;;;;;;;;;;;21.61;46.65;101012.88;5019747;28;4756;-70
2023/05/11 06:38:45;;;;;;;;;;;;;;;21.64;46.79;101009.44;5017104;28;4031;-71
2023/05/11 06:41:12;;;;;;;;;;;;;;;21.63;46.81;101007.22;5014897;28;4209;-69
2023/05/11 06:43:38;;;;;;;;;;;;;;;21.66;46.45;101005.91;5006459;28;4124;-70
2023/05/11 06:46:16;;;;;;;;;;;;;;;21.58;46.52;101006.28;5010897;28;4181;-73
2023/05/11 06:48:43;;;;;;;;;;;;;;;21.58;46.47;101006.28;5014199;28;4099;-72
2023/05/11 06:51:10;;;;;;;;;;;;;;;21.92;46.97;101012.03;5007229;28;4019;-70
2023/05/11 06:53:37;;;;;;;;;;;;;;;22.15;45.99;101002.94;5008136;28;4029;-70
2023/05/11 06:56:03;;;;;;;;;;;;;;;22.18;45.92;101001.63;5012251;28;4136;-70
2023/05/11 06:58:30;;;;;;;;;;;;;;;22.22;45.99;101003.19;5007709;28;4027;-71
2023/05/11 07:00:56;;;;;;;;;;;;;;;22.33;46.03;100999.34;5013767;28;4079;-71
2023/05/11 07:03:23;;;;;;;;;;;;;;;22.41;45.30;101004.72;5007616;28;3941;-75
2023/05/11 07:05:49;;;;;;;;;;;;;;;22.44;45.35;101004.09;5022450;28;3990;-76
2023/05/11 07:08:16;;;;;;;;;;;;;;;22.43;45.36;101002.63;5010253;28;4101;-75
2023/05/11 07:10:42;;;;;;;;;;;;;;;22.11;44.85;101004.91;5013282;28;4223;-79
2023/05/11 07:13:08;;;;;;;;;;;;;;;21.80;45.29;101006.50;5013874;28;4102;-81
2023/05/11 07:15:35;;;;;;;;;;;;;;;21.66;45.14;101003.75;5008500;28;4134;-79
2023/05/11 07:18:01;;;;;;;;;;;;;;;21.65;45.54;101002.28;5012903;28;4162;-84
2023/05/11 07:20:27;;;;;;;;;;;;;;;21.57;45.67;101010.56;5013114;28;4256;-76
2023/05/11 07:22:58;;;;;;;;;;;;;;;21.74;45.63;101001.22;5014129;28;3949;-67
2023/05/11 07:25:24;;;;;;;;;;;;;;;21.80;45.48;101003.63;5011720;28;3977;-67
2023/05/11 07:27:50;;;;;;;;;;;;;;;21.88;45.64;101014.78;5004511;28;4198;-63
2023/05/11 07:30:17;;;;;;;;;;;;;;;21.84;45.84;101008.81;5008063;28;4115;-64
2023/05/11 07:32:44;;;;;;;;;;;;;;;21.68;45.80;101012.50;5008428;28;4209;-66
2023/05/11 07:35:10;;;;;;;;;;;;;;;21.62;45.84;101000.69;5008841;28;4238;-69
2023/05/11 07:37:36;;;;;;;;;;;;;;;21.56;46.20;101003.31;5009441;28;4143;-67
2023/05/11 07:40:03;;;;;;;;;;;;;;;21.53;45.50;101004.63;5009320;28;4118;-64
2023/05/11 07:42:29;;;;;;;;;;;;;;;21.52;45.63;100997.38;5010414;28;4282;-67
2023/05/11 07:44:56;;;;;;;;;;;;;;;21.51;45.44;101002.41;5008491;28;4256;-65
2023/05/11 07:47:23;;;;;;;;;;;;;;;21.49;45.53;101005.19;5006919;28;4052;-65
2023/05/11 07:49:50;;;;;;;;;;;;;;;21.47;45.71;101001.47;5006879;28;4055;-67
2023/05/11 07:52:16;;;;;;;;;;;;;;;21.52;46.21;100997.38;5006885;28;4150;-68
2023/05/11 07:54:42;;;;;;;;;;;;;;;21.54;46.11;100994.59;5004322;28;4132;-66
2023/05/11 07:57:10;;;;;;;;;;;;;;;21.75;46.07;101008.47;5006501;28;4457;-63
2023/05/11 07:59:36;;;;;;;;;;;;;;;21.77;45.24;100998.44;5008700;28;4148;-64
2023/05/11 08:02:04;;;;;;;;;;;;;;;21.78;45.34;100999.91;5010060;28;4957;-63
2023/05/11 08:04:31;;;;;;;;;;;;;;;21.81;45.26;101004.38;5009728;28;4558;-64
2023/05/11 08:06:57;;;;;;;;;;;;;;;21.84;45.36;101003.06;5009065;28;4293;-63
2023/05/11 08:09:24;;;;;;;;;;;;;;;21.87;45.13;101010.38;5006788;28;4081;-64
2023/05/11 08:11:52;;;;;;;;;;;;;;;21.86;45.27;101000.28;5010371;28;4180;-66
2023/05/11 08:14:19;;;;;;;;;;;;;;;21.71;46.05;101005.41;5006683;28;4052;-65
2023/05/11 08:16:47;;;;;;;;;;;;;;;21.62;45.82;101003.56;5008244;28;4094;-69
2023/05/11 08:19:13;;;;;;;;;;;;;;;21.73;45.75;101002.63;5007655;28;3961;-64
2023/05/11 08:21:40;;;;;;;;;;;;;;;21.66;45.63;101000.88;5009777;28;5174;-66
2023/05/11 08:24:07;;;;;;;;;;;;;;;21.70;45.85;101006.81;5010441;28;4305;-64
2023/05/11 08:26:33;;;;;;;;;;;;;;;21.71;45.90;101002.53;5010747;28;4039;-67
2023/05/11 08:28:59;;;;;;;;;;;;;;;21.75;45.48;100996.22;5010247;28;4224;-66
2023/05/11 08:31:26;;;;;;;;;;;;;;;21.78;45.10;101002.78;5004235;28;4540;-65
2023/05/11 08:33:52;;;;;;;;;;;;;;;21.78;45.23;100994.88;5005309;28;4128;-64
2023/05/11 08:36:19;;;;;;;;;;;;;;;21.79;44.90;101007.19;5011197;28;4042;-66
2023/05/11 08:38:45;;;;;;;;;;;;;;;21.83;45.63;100998.69;5012941;28;5264;-64
2023/05/11 08:41:11;;;;;;;;;;;;;;;22.11;45.18;101002.78;5007322;28;4180;-65
2023/05/11 08:43:38;;;;;;;;;;;;;;;22.25;44.53;101010.56;5009275;28;4175;-68
2023/05/11 08:46:08;;;;;;;;;;;;;;;22.13;44.60;101010.78;5011342;28;4118;-67
2023/05/11 08:48:35;;;;;;;;;;;;;;;22.10;44.46;101000.53;5010597;28;4178;-68
2023/05/11 08:51:03;;;;;;;;;;;;;;;22.07;44.64;101002.59;5006582;28;4087;-62
2023/05/11 08:53:29;;;;;;;;;;;;;;;22.00;44.96;100992.22;5005694;28;4141;-64
2023/05/11 08:55:56;;;;;;;;;;;;;;;22.00;45.13;101000.13;5006790;28;4151;-62
2023/05/11 08:58:23;;;;;;;;;;;;;;;21.89;45.33;101010.47;5008966;28;4073;-64
2023/05/11 09:00:49;;;;;;;;;;;;;;;22.02;45.12;101012.47;5005996;28;4015;-65
2023/05/11 09:03:16;;;;;;;;;;;;;;;21.91;45.32;101001.91;5004542;28;4046;-61
2023/05/11 09:05:43;;;;;;;;;;;;;;;21.73;45.40;100999.72;5002918;28;4062;-61
2023/05/11 09:08:10;;;;;;;;;;;;;;;21.73;45.75;100990.34;5003636;28;4387;-64
2023/05/11 09:10:36;;;;;;;;;;;;;;;21.65;46.00;100995.78;5007876;28;4206;-63
2023/05/11 09:13:03;;;;;;;;;;;;;;;21.64;45.33;100991.41;5011553;28;4212;-63
2023/05/11 09:15:29;;;;;;;;;;;;;;;21.64;45.76;100989.25;5009611;28;3995;-63
2023/05/11 09:18:03;;;;;;;;;;;;;;;21.62;45.81;100991.31;5009362;28;4048;-62
2023/05/11 09:20:33;;;;;;;;;;;;;;;21.61;45.63;100998.47;5011046;28;4274;-62
2023/05/11 09:22:59;;;;;;;;;;;;;;;21.61;45.86;100993.44;5008500;28;4394;-62
2023/05/11 09:25:26;;;;;;;;;;;;;;;21.60;45.71;100991.97;5010110;28;4038;-62
2023/05/11 09:27:52;;;;;;;;;;;;;;;21.61;45.85;100987.69;5012416;28;5225;-62
2023/05/11 09:30:22;;;;;;;;;;;;;;;21.60;45.95;100985.44;5009833;28;4008;-63
2023/05/11 09:32:53;;;;;;;;;;;;;;;21.62;45.69;100983.41;5015470;28;4137;-63
2023/05/11 09:35:20;;;;;;;;;;;;;;;21.62;45.18;100989.16;5012224;28;4147;-63
2023/05/11 09:37:56;;;;;;;;;;;;;;;21.59;45.02;100987.59;5012639;28;4134;-63
2023/05/11 09:40:22;;;;;;;;;;;;;;;21.61;45.64;100987.69;5008991;28;4112;-62
2023/05/11 09:42:53;;;;;;;;;;;;;;;21.60;45.75;101000.63;4999832;28;5469;-63
2023/05/11 09:45:38;;;;;;;;;;;;;;;21.60;45.81;100999.88;5013060;28;4089;-62
2023/05/11 09:48:22;;;;;;;;;;;;;;;21.60;45.96;101009.28;5011396;28;4215;-63
2023/05/11 09:50:50;;;;;;;;;;;;;;;21.60;45.85;100991.97;5012456;28;4163;-62
2023/05/11 09:53:16;;;;;;;;;;;;;;;21.59;45.94;100984.72;5009779;28;4508;-62
2023/05/11 09:55:52;;;;;;;;;;;;;;;21.60;46.35;100985.44;5008911;28;4110;-63
2023/05/11 09:58:18;;;;;;;;;;;;;;;21.59;46.24;100990.47;5010099;28;4128;-63
2023/05/11 10:00:51;;;;;;;;;;;;;;;21.59;46.21;100984.72;5009897;28;4153;-63
2023/05/11 10:03:17;;;;;;;;;;;;;;;21.59;46.21;100984.72;5002107;28;4193;-65
2023/05/11 10:05:59;;;;;;;;;;;;;;;21.58;46.42;100979.59;5007882;28;4053;-62
2023/05/11 10:08:29;;;;;;;;;;;;;;;21.58;46.47;100980.38;5007964;28;4204;-63
2023/05/11 10:10:55;;;;;;;;;;;;;;;21.59;46.70;100990.47;5003146;28;5107;-62
2023/05/11 10:13:22;;;;;;;;;;;;;;;21.58;46.49;100991.88;5005505;28;3984;-66
2023/05/11 10:15:50;;;;;;;;;;;;;;;21.58;46.68;100988.25;5006652;28;4145;-62
2023/05/11 10:18:16;;;;;;;;;;;;;;;21.60;46.54;100979.69;5008352;28;4015;-64
2023/05/11 10:20:45;;;;;;;;;;;;;;;21.61;46.51;100966.78;5000426;28;4292;-63
2023/05/11 10:23:12;;;;;;;;;;;;;;;21.61;46.75;100969.66;5000929;28;4327;-63
2023/05/11 10:25:39;;;;;;;;;;;;;;;21.62;46.97;100966.09;5001214;28;4203;-63
2023/05/11 10:28:05;;;;;;;;;;;;;;;21.62;47.79;100971.88;5005261;28;4183;-63
2023/05/11 10:30:32;;;;;;;;;;;;;;;21.59;46.94;100963.81;5002007;28;4358;-62
2023/05/11 10:32:59;;;;;;;;;;;;;;;21.57;46.17;100964.47;5001240;28;4294;-65
2023/05/11 10:35:26;;;;;;;;;;;;;;;21.60;41.18;100963.16;5009629;28;4218;-64
2023/05/11 10:37:52;;;;;;;;;;;;;;;21.96;44.14;100958.16;5001481;28;5682;-63
2023/05/11 10:40:19;;;;;;;;;;;;;;;22.21;44.53;100964.22;5008956;28;3933;-63
2023/05/11 10:43:04;;;;;;;;;;;;;;;22.40;43.69;100957.03;5003452;28;4411;-58
2023/05/11 10:45:30;;;;;;;;;;;;;;;22.41;42.67;100955.66;5007081;28;4450;-59
2023/05/11 10:48:08;;;;;;;;;;;;;;;22.51;42.13;100956.78;5009879;28;4005;-59
2023/05/11 10:50:53;;;;;;;;;;;;;;;22.36;42.41;100957.63;5015190;28;4166;-57
2023/05/11 10:53:22;;;;;;;;;;;;;;;22.15;40.33;100953.16;5015708;28;4295;-59
2023/05/11 10:56:12;;;;;;;;;;;;;;;22.28;41.75;100960.19;5015530;28;4515;-59
2023/05/11 10:58:42;;;;;;;;;;;;;;;21.88;41.40;100952.09;5009036;28;4170;-60
2023/05/11 11:01:17;;;;;;;;;;;;;;;21.88;40.97;100957.84;5005716;28;4192;-58
2023/05/11 11:04:01;;;;;;;;;;;;;;;22.05;42.21;100959.25;5006905;28;4188;-59
2023/05/11 11:06:28;;;;;;;;;;;;;;;21.93;41.40;100964.53;5009398;28;4184;-58
2023/05/11 11:08:56;;;;;;;;;;;;;;;21.75;41.03;100950.09;5015511;28;4049;-58
2023/05/11 11:11:39;;;;;;;;;;;;;;;21.88;40.66;100957.13;5010037;28;4152;-59
2023/05/11 11:14:05;;;;;;;;;;;;;;;21.74;38.67;100958.00;5011703;28;4131;-60
2023/05/11 11:16:32;;;;;;;;;;;;;;;21.96;41.09;100960.31;5015662;28;4152;-58
2023/05/11 11:19:17;;;;;;;;;;;;;;;22.10;40.79;100957.28;5015885;28;4513;-58
2023/05/11 11:21:44;;;;;;;;;;;;;;;22.23;40.42;100949.91;5014066;28;4135;-59
2023/05/11 11:24:30;;;;;;;;;;;;;;;22.12;40.60;100954.47;5013510;28;4159;-59
2023/05/11 11:26:57;;;;;;;;;;;;;;;21.78;38.23;100965.31;5015370;28;4036;-59
2023/05/11 11:29:23;;;;;;;;;;;;;;;22.11;40.14;100950.84;5015887;28;4201;-59
2023/05/11 11:31:49;;;;;;;;;;;;;;;22.26;39.81;100954.34;5013445;28;4924;-59
2023/05/11 11:34:26;;;;;;;;;;;;;;;22.44;39.99;100954.31;5012830;28;4196;-58
2023/05/11 11:36:55;;;;;;;;;;;;;;;22.32;39.94;100957.47;5012750;28;4003;-59
2023/05/11 11:39:21;;;;;;;;;;;;;;;22.34;40.06;100952.53;5007018;28;4044;-58
2023/05/11 11:42:00;;;;;;;;;;;;;;;22.48;39.91;100951.59;5013769;28;4007;-59
2023/05/11 11:44:26;;;;;;;;;;;;;;;22.53;39.50;100947.47;5017341;28;4036;-59
2023/05/11 11:47:11;;;;;;;;;;;;;;;22.51;39.57;100951.00;5013097;28;4259;-59
2023/05/11 11:49:38;;;;;;;;;;;;;;;22.43;39.66;100950.69;5015219;28;4187;-58
2023/05/11 11:52:07;;;;;;;;;;;;;;;22.32;39.06;100958.22;5006921;28;4473;-59
2023/05/11 11:54:38;;;;;;;;;;;;;;;22.34;39.63;100952.53;5007525;28;4339;-59
2023/05/11 11:57:10;;;;;;;;;;;;;;;22.24;38.85;100954.25;5005772;28;4260;-59
2023/05/11 11:59:44;;;;;;;;;;;;;;;22.56;39.65;100957.69;5009760;28;4027;-59
2023/05/11 12:02:10;;;;;;;;;;;;;;;22.64;39.22;100954.38;5008265;28;4197;-60
2023/05/11 12:04:38;;;;;;;;;;;;;;;22.71;38.67;100968.38;5006568;28;4188;-59
2023/05/11 12:07:06;;;;;;;;;;;;;;;22.44;36.77;100955.06;5003355;28;4170;-59
2023/05/11 12:09:33;;;;;;;;;;;;;;;22.60;37.83;100963.59;5006307;28;4182;-58
2023/05/11 12:12:01;;;;;;;;;;;;;;;22.56;39.17;100954.78;5005349;28;4092;-58
2023/05/11 12:14:27;;;;;;;;;;;;;;;22.53;38.83;100970.56;5006006;28;4209;-59
2023/05/11 12:17:00;;;;;;;;;;;;;;;22.54;38.72;100958.34;5009046;28;4167;-58
2023/05/11 12:19:27;;;;;;;;;;;;;;;22.37;37.32;100956.22;5007104;28;4158;-58
2023/05/11 12:21:53;;;;;;;;;;;;;;;22.36;37.82;100963.41;5011324;28;4167;-58
2023/05/11 12:24:19;;;;;;;;;;;;;;;22.47;38.71;100962.41;5007381;28;5268;-59
2023/05/11 12:26:46;;;;;;;;;;;;;;;22.63;38.76;100961.53;5007392;28;4034;-58
2023/05/11 12:29:13;;;;;;;;;;;;;;;22.66;38.46;100955.19;5010651;28;4203;-58
2023/05/11 12:31:39;;;;;;;;;;;;;;;22.72;38.56;100954.66;5005339;28;4204;-59
2023/05/11 12:34:06;;;;;;;;;;;;;;;22.83;38.93;100952.94;5006389;28;4052;-59
2023/05/11 12:36:33;;;;;;;;;;;;;;;22.78;38.91;100943.38;5006895;28;4642;-59
2023/05/11 12:38:59;;;;;;;;;;;;;;;22.42;36.40;100949.22;5005295;28;4075;-58
2023/05/11 12:41:26;;;;;;;;;;;;;;;22.33;35.91;100956.06;5009330;28;4982;-58
2023/05/11 12:43:52;;;;;;;;;;;;;;;22.36;37.63;100958.38;5008586;28;4272;-58
2023/05/11 12:46:19;;;;;;;;;;;;;;;22.50;37.76;100961.06;5006162;28;4091;-60
2023/05/11 12:48:45;;;;;;;;;;;;;;;22.52;38.20;100964.03;5012588;28;4136;-59
2023/05/11 12:51:12;;;;;;;;;;;;;;;22.51;37.47;100956.78;5005196;28;4095;-58